Terminal Aerodrome Forecast
Issued by NWS

Home | Current Version | Previous Version | Text Only | Print | Product List | Glossary On
Versions: 1 2 3 4 5 6 7 8 9 10 11 12 13 14
000
FTUS46 KSEW 272300
TAFCLM
TAF
KCLM 272320Z 2800/2824 28013G22KT P6SM OVC010
     FM281100 25009KT P6SM OVC020
     FM281900 VRB05KT P6SM OVC020=

USA.gov is the U.S. government's official web portal to all federal, state and local government web resources and services.